Latest Weather Observations for Cape Willoughby

IDS60801

Issued at 6:35 am CST Thursday 18 September 2014 (issued every 30 minutes, with the page automatically refreshed every 10 minutes)

About weather observations | Map of weather stations | Latest weather observations for SA | Other Formats
Station Details ID: 022803 Name: CAPE WILLOUGHBY Lat: -35.84 Lon: 138.13 Height: 55.0 m
Data from the previous 72 hours. | See also: Recent months at Cape Willoughby
Date/Time
CST
Temp
°C
App
Temp
°C
Dew
Point
Rel
Hum
%
Delta-T
°C
Wind Press
QNH
hPa
Press
MSL
hPa
Rain
since 9 am
mm
Dir
 
Spd
km/h
Gust
km/h
Spd
kts
Gust
kts
18/06:30am 9.2 5.7 7.3 88 0.9 W 15 17 8 9 1025.5 1025.5 0.0
18/06:00am 9.4 5.9 7.2 86 1.0 W 15 17 8 9 1025.2 1025.2 0.0
18/05:30am 9.5 6.7 6.8 83 1.3 W 11 15 6 8 1024.9 1024.9 0.0
18/05:00am 9.3 6.8 6.7 84 1.2 W 9 11 5 6 1024.6 1024.6 0.0
18/04:30am 9.1 5.9 6.9 86 1.0 W 13 17 7 9 1024.6 1024.6 0.0
18/04:00am 9.3 6.4 6.4 82 1.3 W 11 13 6 7 1024.5 1024.5 0.0
18/03:30am 9.6 6.6 6.1 79 1.6 W 11 17 6 9 1024.6 1024.6 0.0
18/03:00am 11.2 6.2 6.3 72 2.3 S 22 26 12 14 1024.4 1024.4 0.0
18/02:30am 11.1 8.5 6.0 71 2.4 SSW 9 15 5 8 1024.6 1024.6 0.0
18/02:00am 10.8 6.5 7.1 78 1.8 SSW 19 22 10 12 1024.7 1024.7 0.0
18/01:30am 11.2 6.7 5.9 70 2.5 SSW 19 24 10 13 1024.8 1024.8 0.0
18/01:00am 10.6 8.4 6.4 75 2.0 WSW 7 19 4 10 1025.1 1025.1 0.0
18/12:30am 10.1 6.6 7.2 82 1.4 WSW 15 20 8 11 1025.1 1025.1 0.0
18/12:00am 9.9 6.2 7.8 87 1.0 WSW 17 22 9 12 1025.3 1025.3 0.0
 
Date/Time
CST
Temp
°C
App
Temp
°C
Dew
Point
Rel
Hum
%
Delta-T
°C
Wind Press
QNH
hPa
Press
MSL
hPa
Rain
since 9 am
mm
Dir
 
Spd
km/h
Gust
km/h
Spd
kts
Gust
kts
17/11:30pm 10.9 6.7 7.6 80 1.6 WSW 19 26 10 14 1025.3 1025.3 0.0
17/11:00pm 11.7 7.2 6.8 72 2.3 S 20 26 11 14 1024.9 1024.9 0.0
17/10:30pm 10.3 6.9 6.1 75 1.9 WSW 13 15 7 8 1024.9 1024.9 0.0
17/10:00pm 10.6 7.6 6.0 73 2.1 SW 11 15 6 8 1025.0 1025.0 0.0
17/09:30pm 10.6 7.5 5.4 70 2.4 SW 11 15 6 8 1025.0 1025.0 0.0
17/09:00pm 11.2 3.3 6.1 71 2.4 SSW 37 44 20 24 1024.7 1024.7 0.0
17/08:30pm 11.9 7.9 6.6 70 2.5 SW 17 32 9 17 1024.6 1024.6 0.0
17/08:00pm 12.0 7.3 3.3 55 3.9 SSW 17 26 9 14 1024.6 1024.6 0.0
17/07:30pm 11.9 6.2 2.9 54 3.9 SW 22 30 12 16 1024.5 1024.5 0.0
17/07:00pm 11.9 6.7 3.4 56 3.8 SW 20 24 11 13 1024.2 1024.2 0.0
17/06:30pm 12.0 7.7 3.3 55 3.8 SSW 15 24 8 13 1024.1 1024.1 0.0
17/06:00pm 12.0 7.5 4.0 58 3.6 SSW 17 24 9 13 1023.8 1023.8 0.0
17/05:30pm 12.1 6.1 3.6 56 3.8 S 24 35 13 19 1023.4 1023.4 0.0
17/05:00pm 12.3 6.7 3.3 54 4.0 SW 22 28 12 15 1023.4 1023.4 0.0
17/04:30pm 12.4 7.4 3.4 54 4.0 SSW 19 28 10 15 1023.2 1023.2 0.0
17/04:00pm 12.7 7.5 3.4 53 4.2 SSW 20 32 11 17 1023.0 1023.0 0.0
17/03:30pm 12.7 7.3 4.4 57 3.8 SSW 22 28 12 15 1022.8 1022.8 0.0
17/03:00pm 12.8 8.2 3.7 54 4.1 S 17 26 9 14 1022.6 1022.6 0.0
17/02:30pm 12.5 7.3 3.5 54 4.0 S 20 33 11 18 1022.5 1022.5 0.0
17/02:00pm 12.6 7.4 3.8 55 4.0 S 20 32 11 17 1022.4 1022.4 0.0
17/01:30pm 12.7 7.3 4.4 57 3.8 S 22 33 12 18 1022.4 1022.4 0.0
17/01:00pm 13.0 7.5 3.9 54 4.1 SSW 22 32 12 17 1022.3 1022.3 0.0
17/12:30pm 12.6 6.9 4.8 59 3.6 S 24 35 13 19 1022.3 1022.3 0.0
17/12:00pm 12.7 7.9 5.4 61 3.4 S 20 30 11 16 1022.4 1022.4 0.0
17/11:30am 13.3 7.4 5.7 60 3.6 SSW 26 33 14 18 1022.3 1022.3 0.0
17/11:00am 13.1 6.0 5.3 59 3.6 SSW 32 37 17 20 1022.0 1022.0 0.0
17/10:30am 13.0 6.7 5.9 62 3.3 SSW 28 39 15 21 1021.9 1021.9 0.0
17/10:00am 12.8 7.5 6.6 66 3.0 S 24 35 13 19 1021.7 1021.7 0.0
17/09:30am 13.3 6.9 6.9 65 3.1 SSW 30 37 16 20 1021.4 1021.4 0.0
17/09:00am 12.6 5.8 6.9 68 2.7 SSW 32 39 17 21 1021.2 1021.2 3.0
17/08:30am 12.6 7.6 7.9 73 2.3 S 24 35 13 19 1021.0 1021.0 3.0
17/08:00am 12.4 5.5 6.5 67 2.8 SSW 32 41 17 22 1020.4 1020.4 3.0
17/07:30am 12.3 5.5 7.8 74 2.2 SSW 33 43 18 23 1020.0 1020.0 3.0
17/07:00am 11.9 5.1 6.8 71 2.4 SSW 32 41 17 22 1019.6 1019.7 3.0
17/06:30am 12.2 5.7 8.3 77 1.9 SSW 32 41 17 22 1019.2 1019.3 3.0
17/06:00am 11.8 5.3 8.1 78 1.8 SW 32 37 17 20 1019.1 1019.2 3.0
17/05:30am 10.7 5.6 7.8 82 1.4 WSW 24 30 13 16 1018.8 1018.8 3.0
17/05:00am 10.7 5.7 7.9 83 1.4 SW 24 33 13 18 1018.6 1018.6 3.0
17/04:30am 9.8 5.6 8.2 90 0.8 WSW 20 30 11 16 1018.6 1018.6 3.0
17/04:00am 9.2 4.6 8.1 93 0.5 W 22 28 12 15 1018.3 1018.3 3.0
17/03:30am 9.2 5.2 8.1 93 0.5 W 19 24 10 13 1018.1 1018.1 3.0
17/03:00am 9.6 5.5 8.5 93 0.5 W 20 24 11 13 1018.2 1018.2 3.0
17/02:30am 9.8 5.4 8.9 94 0.4 W 22 28 12 15 1018.6 1018.6 2.4
17/02:00am 9.5 5.5 8.4 93 0.5 W 19 24 10 13 1018.5 1018.5 2.0
17/01:30am 9.7 4.4 8.5 92 0.6 W 26 33 14 18 1018.9 1018.9 2.0
17/01:00am 9.5 4.0 7.6 88 0.9 W 26 32 14 17 1018.6 1018.6 1.8
17/12:30am 9.7 5.4 8.0 89 0.8 W 20 26 11 14 1018.9 1018.9 1.8
17/12:00am 10.0 5.7 7.9 87 1.0 WSW 20 30 11 16 1019.1 1019.2 1.6
 
Date/Time
CST
Temp
°C
App
Temp
°C
Dew
Point
Rel
Hum
%
Delta-T
°C
Wind Press
QNH
hPa
Press
MSL
hPa
Rain
since 9 am
mm
Dir
 
Spd
km/h
Gust
km/h
Spd
kts
Gust
kts
16/11:30pm 10.0 4.6 6.3 78 1.7 WNW 24 32 13 17 1018.6 1018.6 0.6
16/11:00pm 10.7 7.0 6.1 73 2.1 NW 15 22 8 12 1018.8 1018.8 0.6
16/10:30pm 11.6 8.2 6.1 69 2.6 W 13 19 7 10 1018.7 1018.7 0.6
16/10:00pm 11.8 8.4 5.9 67 2.8 WSW 13 19 7 10 1018.8 1018.8 0.6
16/09:30pm 12.3 5.1 4.8 60 3.4 SSW 32 37 17 20 1018.5 1018.5 0.6
16/09:00pm 12.2 6.3 6.0 66 2.9 WSW 26 35 14 19 1018.5 1018.5 0.6
16/08:30pm 11.9 7.5 6.6 70 2.5 WSW 19 26 10 14 1018.3 1018.3 0.6
16/08:00pm 10.8 7.0 6.0 72 2.2 W 15 20 8 11 1017.9 1017.9 0.6
16/07:30pm 10.9 6.8 6.3 73 2.2 W 17 24 9 13 1017.5 1017.5 0.6
16/07:00pm 11.7 7.0 7.8 77 1.9 WSW 22 32 12 17 1017.2 1017.2 0.6
16/06:30pm 12.2 6.0 9.2 82 1.5 SW 32 39 17 21 1016.9 1016.9 0.6
16/06:00pm 12.3 5.0 8.8 79 1.7 SW 37 46 20 25 1016.6 1016.6 0.6
16/05:30pm 12.5 6.5 8.6 77 1.9 SW 30 37 16 20 1016.4 1016.4 0.6
16/05:00pm 13.1 6.6 9.0 76 2.1 SW 33 43 18 23 1016.3 1016.3 0.6
16/04:30pm 13.4 7.6 9.3 76 2.1 SW 30 39 16 21 1016.3 1016.3 0.6
16/04:00pm 13.4 6.9 9.1 75 2.2 SW 33 41 18 22 1016.1 1016.1 0.6
16/03:30pm 13.1 7.5 10.1 82 1.5 SSW 30 35 16 19 1016.0 1016.0 0.6
16/03:00pm 13.1 7.5 10.1 82 1.5 SW 30 37 16 20 1015.9 1015.9 0.6
16/02:30pm 13.1 8.0 10.5 84 1.4 SW 28 35 15 19 1016.0 1016.0 0.6
16/02:00pm 12.7 7.5 10.4 86 1.2 WSW 28 37 15 20 1016.2 1016.2 0.6
16/01:30pm 13.4 6.9 10.2 81 1.7 WSW 35 46 19 25 1016.4 1016.4 0.0
16/01:03pm 13.6 8.1 9.3 75 2.2 WSW 28 50 15 27 1016.4 1016.4 0.0
16/01:00pm 14.6 10.0 9.6 72 2.6 WSW 24 32 13 17 1016.5 1016.5 0.0
16/12:30pm 14.8 11.4 9.2 69 2.9 W 17 26 9 14 1016.8 1016.8 0.0
16/12:00pm 16.0 10.9 7.5 57 4.2 WSW 24 33 13 18 1016.9 1016.9 0.0
16/11:30am 15.8 11.1 7.6 58 4.1 WSW 22 35 12 19 1017.1 1017.1 0.0
16/11:00am 16.1 12.4 8.1 59 4.0 SW 17 24 9 13 1017.3 1017.3 0.0
16/10:30am 15.9 12.7 5.2 49 5.1 SSW 11 19 6 10 1017.3 1017.3 0.0
16/10:00am 15.7 11.6 6.4 54 4.5 SW 17 24 9 13 1017.4 1017.4 0.0
16/09:30am 14.9 11.1 9.7 71 2.7 WSW 20 33 11 18 1017.6 1017.6 0.0
16/09:00am 13.9 9.1 8.7 71 2.6 W 24 33 13 18 1017.7 1017.7 0.4
16/08:30am 13.6 9.0 9.8 78 2.0 W 24 33 13 18 1017.7 1017.7 0.4
16/08:00am 11.9 7.8 10.1 89 0.9 W 22 28 12 15 1017.6 1017.6 0.4
16/07:30am 11.9 8.4 10.1 89 0.9 W 19 24 10 13 1017.5 1017.5 0.4
16/07:00am 10.8 7.5 9.4 91 0.7 W 17 22 9 12 1017.3 1017.3 0.4
16/06:30am 10.9 7.3 9.7 92 0.6 W 19 22 10 12 1017.0 1017.0 0.2
16/06:00am 11.2 7.7 10.1 93 0.6 W 19 26 10 14 1016.9 1016.9 0.2
16/05:30am 11.5 8.8 10.2 92 0.7 W 15 20 8 11 1016.8 1016.8 0.2
16/05:00am 11.6 8.8 10.0 90 0.8 W 15 19 8 10 1016.7 1016.7 0.2
16/04:30am 11.8 8.2 10.4 91 0.7 W 20 28 11 15 1016.4 1016.4 0.2
16/04:00am 12.4 8.9 10.1 86 1.2 WSW 19 24 10 13 1016.3 1016.3 0.2
16/03:30am 12.6 9.6 10.5 87 1.1 SW 17 22 9 12 1016.0 1016.0 0.2
16/03:00am 12.4 8.9 10.1 86 1.2 WSW 19 24 10 13 1015.9 1015.9 0.2
16/02:30am 12.9 9.4 11.0 88 1.0 SW 20 28 11 15 1016.1 1016.1 0.2
16/02:00am 12.4 8.8 10.6 89 0.9 SW 20 26 11 14 1016.2 1016.2 0.2
16/01:30am 12.3 10.0 10.4 88 1.0 WSW 13 19 7 10 1016.7 1016.7 0.2
16/01:00am 13.2 8.7 10.2 82 1.6 SSW 24 30 13 16 1016.8 1016.8 0.2
16/12:30am 13.1 8.6 9.9 81 1.6 SSW 24 30 13 16 1016.8 1016.8 0.2
16/12:00am 13.0 8.1 10.0 82 1.5 SSW 26 33 14 18 1016.9 1016.9 0.2
 
Date/Time
CST
Temp
°C
App
Temp
°C
Dew
Point
Rel
Hum
%
Delta-T
°C
Wind Press
QNH
hPa
Press
MSL
hPa
Rain
since 9 am
mm
Dir
 
Spd
km/h
Gust
km/h
Spd
kts
Gust
kts
15/11:30pm 12.9 7.2 9.9 82 1.5 SSW 30 37 16 20 1016.8 1016.8 0.2
15/11:00pm 12.9 8.8 10.1 83 1.4 SSW 22 33 12 18 1016.8 1016.8 0.2
15/10:30pm 13.2 9.1 10.2 82 1.6 S 22 33 12 18 1016.8 1016.8 0.2
15/10:00pm 13.2 7.9 10.0 81 1.7 S 28 37 15 20 1016.9 1016.9 0.2
15/09:30pm 13.3 7.4 10.3 82 1.6 S 32 41 17 22 1016.8 1016.8 0.2
15/09:00pm 13.2 9.5 11.4 89 1.0 SSW 22 33 12 18 1016.9 1016.9 0.2
15/08:30pm 13.6 8.1 10.4 81 1.7 S 30 43 16 23 1016.7 1016.7 0.2
15/08:00pm 13.4 8.7 10.8 84 1.4 S 26 39 14 21 1016.6 1016.6 0.2
15/07:30pm 13.5 7.5 10.7 83 1.5 S 33 44 18 24 1016.1 1016.1 0.2
15/07:00pm 13.5 7.0 10.5 82 1.6 S 35 44 19 24 1015.5 1015.5 0.2
15/06:30pm 13.5 7.7 11.4 87 1.1 S 33 41 18 22 1015.5 1015.5 0.2
15/06:00pm 13.5 7.4 10.5 82 1.6 S 33 50 18 27 1015.0 1015.0 0.2
15/05:30pm 13.4 6.5 10.4 82 1.6 S 37 52 20 28 1014.7 1014.7 0.2
15/05:29pm 13.3 6.0 10.3 82 1.6 S 39 57 21 31 1014.6 1014.6 0.2
15/05:00pm 14.0 6.0 11.2 83 1.5 SSW 44 54 24 29 1014.3 1014.3 0.2
15/04:30pm 14.0 5.7 11.3 84 1.4 SSW 46 56 25 30 1014.0 1014.0 0.2
15/04:00pm 13.8 5.0 11.1 84 1.4 SSW 48 59 26 32 1013.4 1013.4 0.2
15/03:30pm 13.3 4.7 11.5 89 1.0 SSW 48 61 26 33 1013.3 1013.3 0.2
15/03:00pm 13.9 6.2 11.4 85 1.3 SSW 43 57 23 31 1013.3 1013.3 0.0
15/02:30pm 13.7 5.9 11.0 84 1.4 SSW 43 54 23 29 1013.1 1013.1 0.0
15/02:00pm 13.9 6.6 11.6 86 1.2 SSW 41 48 22 26 1013.2 1013.2 0.0
15/01:30pm 14.3 7.8 11.6 84 1.4 SSW 37 52 20 28 1013.1 1013.1 0.0
15/01:00pm 14.2 8.7 11.9 86 1.2 SSW 32 52 17 28 1012.8 1012.8 0.0
15/12:58pm 14.3 8.6 11.8 85 1.3 SSW 33 52 18 28 1012.8 1012.8 0.0
15/12:30pm 14.5 8.4 11.8 84 1.5 S 35 48 19 26 1012.3 1012.3 0.0
15/12:20pm 14.3 7.5 11.8 85 1.3 S 39 57 21 31 1012.2 1012.2 0.0
15/12:00pm 14.3 6.4 11.6 84 1.4 S 44 59 24 32 1012.1 1012.1 0.0
15/11:30am 14.6 6.2 11.0 79 1.9 S 46 59 25 32 1011.7 1011.7 0.0
15/11:00am 14.7 6.4 11.5 81 1.7 S 46 54 25 29 1011.4 1011.4 0.0
15/10:30am 14.7 8.5 11.3 80 1.8 S 35 48 19 26 1011.4 1011.4 0.0
15/10:00am 14.7 9.9 11.7 82 1.6 S 28 41 15 22 1011.4 1011.4 0.0
15/09:30am 14.1 7.4 10.9 81 1.7 S 37 44 20 24 1010.7 1010.7 0.0
15/09:00am 14.1 7.1 11.3 83 1.5 S 39 46 21 25 1009.9 1009.9 0.0
15/08:30am 14.0 9.2 11.7 86 1.2 S 28 37 15 20 1009.8 1009.8 0.0
15/08:00am 13.8 9.6 12.5 92 0.7 S 26 35 14 19 1009.6 1009.6 0.0
15/07:30am 13.7 11.7 12.6 93 0.6 S 15 20 8 11 1009.1 1009.1 0.0
15/07:00am 13.3 12.3 12.4 94 0.5 SW 9 13 5 7 1008.8 1008.8 0.0

Other Formats:

Comma delimited format used in spreadsheet applications
http://www.bom.gov.au/fwo/IDS60801/IDS60801.94822.axf

JavaScript Object Notation format (JSON) in row-major order
http://www.bom.gov.au/fwo/IDS60801/IDS60801.94822.json